Time;durP1;ratioP1;P1;durP2;ratioP2;P2;SDS_P1;SDS_P2;PMS_P1;PMS_P2;Temp;Humidity;BMP_temperature;BMP_pressure;BME280_temperature;BME280_humidity;BME280_pressure;Samples;Min_cycle;Max_cycle;Signal;HPM_P1;HPM_P2
2023/08/30 00:03:25;;;;;;;4.35;1.60;;;24.90;60.80;;;;;;10497284;28;20135;-34
2023/08/30 00:08:27;;;;;;;2.33;1.65;;;25.10;60.50;;;;;;10503148;28;20072;-32
2023/08/30 00:13:33;;;;;;;4.50;2.10;;;25.00;60.50;;;;;;10495886;28;20518;-34
2023/08/30 00:18:34;;;;;;;2.88;2.17;;;25.20;60.00;;;;;;10493006;28;20040;-40
2023/08/30 00:23:36;;;;;;;2.25;1.80;;;25.20;59.90;;;;;;10506693;28;20122;-36
2023/08/30 00:28:39;;;;;;;3.80;2.75;;;25.50;59.50;;;;;;10499692;28;20072;-32
2023/08/30 00:33:41;;;;;;;4.05;2.42;;;25.20;59.60;;;;;;10496153;28;20106;-39
2023/08/30 00:38:43;;;;;;;;;;;25.10;59.60;;;;;;10494723;28;20159;-35
2023/08/30 00:43:46;;;;;;;3.13;1.90;;;24.90;60.50;;;;;;10491130;28;20007;-29
2023/08/30 00:48:48;;;;;;;2.70;2.00;;;25.20;59.70;;;;;;10483882;28;20147;-32
2023/08/30 00:53:50;;;;;;;4.28;1.95;;;25.30;59.70;;;;;;10494142;28;20127;-35
2023/08/30 00:58:54;;;;;;;2.40;1.88;;;25.40;59.40;;;;;;10489552;28;20477;-41
2023/08/30 01:03:56;;;;;;;2.60;1.83;;;24.80;60.40;;;;;;10492335;28;20074;-32
2023/08/30 01:08:58;;;;;;;4.88;3.22;;;25.20;59.80;;;;;;10493298;28;20080;-32
2023/08/30 01:14:08;;;;;;;2.63;2.15;;;25.00;60.00;;;;;;10489611;28;20106;-37
2023/08/30 01:19:28;;;;;;;4.18;1.83;;;25.00;60.30;;;;;;10494062;28;20044;-32
2023/08/30 01:24:38;;;;;;;2.80;2.10;;;25.20;60.00;;;;;;10499427;28;20068;-40
2023/08/30 01:29:45;;;;;;;3.42;2.35;;;25.00;59.80;;;;;;10493115;28;20131;-32
2023/08/30 01:34:48;;;;;;;2.25;1.90;;;25.10;60.00;;;;;;10497640;28;20098;-39
2023/08/30 01:39:50;;;;;;;3.15;1.90;;;24.70;61.10;;;;;;10493131;28;20048;-32
2023/08/30 01:44:57;;;;;;;4.10;2.50;;;25.00;60.30;;;;;;10491234;28;20044;-37
2023/08/30 01:49:59;;;;;;;3.17;1.63;;;25.10;59.90;;;;;;10483494;28;20106;-36
2023/08/30 01:55:03;;;;;;;2.45;1.88;;;25.20;60.00;;;;;;10505576;28;20135;-29
2023/08/30 02:00:07;;;;;;;5.45;2.95;;;25.10;60.00;;;;;;10492239;28;20080;-32
2023/08/30 02:05:12;;;;;;;2.22;1.52;;;24.90;60.60;;;;;;10485480;28;20097;-30
2023/08/30 02:10:22;;;;;;;4.60;1.50;;;25.20;60.10;;;;;;10500605;28;20048;-36
2023/08/30 02:15:26;;;;;;;2.50;1.65;;;25.20;59.80;;;;;;10491135;28;20079;-36
2023/08/30 02:20:28;;;;;;;2.08;1.30;;;25.20;59.70;;;;;;10492097;28;20048;-35
2023/08/30 02:25:30;;;;;;;2.35;1.35;;;25.20;59.70;;;;;;10495990;28;20068;-35
2023/08/30 02:30:33;;;;;;;;;;;25.20;59.70;;;;;;10489322;28;20071;-32
2023/08/30 02:35:35;;;;;;;2.58;1.70;;;25.20;59.70;;;;;;10490551;28;19964;-34
2023/08/30 02:40:37;;;;;;;2.92;1.92;;;25.20;59.70;;;;;;10487140;28;20060;-37
2023/08/30 02:45:40;;;;;;;2.03;1.48;;;25.20;59.80;;;;;;10487749;28;20496;-34
2023/08/30 02:50:42;;;;;;;3.97;1.60;;;25.20;59.80;;;;;;10489927;28;20148;-34
2023/08/30 02:55:43;;;;;;;;;;;25.10;59.70;;;;;;10490888;28;20083;-35
2023/08/30 03:15:32;;;;;;;2.20;1.33;;;24.90;60.10;;;;;;10592984;27;20111;-40
2023/08/30 03:20:34;;;;;;;1.65;1.20;;;25.00;60.40;;;;;;10609786;27;20050;-32
2023/08/30 03:25:35;;;;;;;;;;;25.00;60.20;;;;;;10591329;27;20516;-33
2023/08/30 03:30:39;;;;;;;1.55;1.30;;;25.00;60.20;;;;;;10609876;27;20018;-35
2023/08/30 03:35:40;;;;;;;2.30;1.35;;;25.00;60.10;;;;;;10614174;27;20035;-32
2023/08/30 03:40:42;;;;;;;;;;;25.00;60.20;;;;;;10605703;27;20079;-32
2023/08/30 03:45:45;;;;;;;1.63;1.38;;;24.90;60.30;;;;;;10602472;27;19919;-38
2023/08/30 03:50:47;;;;;;;2.15;1.45;;;24.90;60.30;;;;;;10589699;27;20094;-36
2023/08/30 03:55:49;;;;;;;1.90;1.42;;;24.90;60.30;;;;;;10603424;27;20047;-35
2023/08/30 04:00:52;;;;;;;;;;;24.90;60.20;;;;;;10609931;27;20078;-34
2023/08/30 04:05:56;;;;;;;2.78;1.85;;;24.80;60.60;;;;;;10614216;27;20013;-35
2023/08/30 04:10:58;;;;;;;1.40;1.20;;;24.90;60.30;;;;;;10607036;27;20430;-31
2023/08/30 04:16:01;;;;;;;;;;;24.90;60.30;;;;;;10608584;27;20074;-35
2023/08/30 04:21:03;;;;;;;2.05;1.55;;;24.90;60.30;;;;;;10603891;27;19926;-33
2023/08/30 04:26:04;;;;;;;;;;;24.90;60.30;;;;;;10573516;28;20729;-33
2023/08/30 04:31:07;;;;;;;1.88;1.30;;;24.90;60.50;;;;;;10555881;27;19924;-32
2023/08/30 04:36:09;;;;;;;3.35;2.10;;;24.90;60.70;;;;;;10547371;27;20127;-32
2023/08/30 04:41:11;;;;;;;2.90;1.65;;;24.90;60.80;;;;;;10545836;27;20071;-41
2023/08/30 04:46:14;;;;;;;;;;;24.80;60.90;;;;;;10544543;28;20047;-36
2023/08/30 04:51:16;;;;;;;2.83;1.90;;;24.90;61.00;;;;;;10543998;28;20435;-39
2023/08/30 04:56:18;;;;;;;;;;;24.90;61.20;;;;;;10545272;28;20126;-37
2023/08/30 05:01:21;;;;;;;4.82;1.70;;;24.80;61.50;;;;;;10561928;28;20427;-37
2023/08/30 05:06:23;;;;;;;2.28;1.65;;;24.70;61.70;;;;;;10559065;27;20727;-37
2023/08/30 05:11:25;;;;;;;4.90;1.98;;;24.70;61.60;;;;;;10569011;27;20476;-41
2023/08/30 05:16:28;;;;;;;;;;;24.70;61.70;;;;;;10565949;27;20044;-31
2023/08/30 05:21:30;;;;;;;8.05;2.00;;;24.80;61.50;;;;;;10568097;27;19966;-36
2023/08/30 05:26:31;;;;;;;;;;;24.80;61.60;;;;;;10573024;28;20043;-33
2023/08/30 05:31:35;;;;;;;2.50;1.63;;;24.70;62.00;;;;;;10567096;27;20018;-38
2023/08/30 05:36:37;;;;;;;4.10;2.28;;;24.70;61.90;;;;;;10562404;28;20051;-35
2023/08/30 05:41:38;;;;;;;4.45;2.10;;;24.80;62.00;;;;;;10562882;28;20126;-34
2023/08/30 05:46:41;;;;;;;;;;;24.80;62.10;;;;;;10572770;27;20221;-33
2023/08/30 05:51:43;;;;;;;2.97;1.70;;;24.80;62.20;;;;;;10581244;27;19923;-36
2023/08/30 05:56:45;;;;;;;2.45;1.58;;;24.80;62.20;;;;;;10571298;27;20075;-38
2023/08/30 06:01:48;;;;;;;;;;;24.80;62.30;;;;;;10581697;27;20674;-41
2023/08/30 06:06:50;;;;;;;1.83;1.40;;;24.60;62.70;;;;;;10578977;27;19988;-40
2023/08/30 06:11:52;;;;;;;;;;;24.60;62.80;;;;;;10561417;27;20062;-38
2023/08/30 06:16:55;;;;;;;4.32;1.50;;;24.70;62.50;;;;;;10561193;28;19919;-35
2023/08/30 06:21:57;;;;;;;2.53;1.50;;;24.70;62.50;;;;;;10568652;27;20043;-40
2023/08/30 06:26:59;;;;;;;;;;;24.70;62.60;;;;;;10576023;27;20075;-37
2023/08/30 06:32:03;;;;;;;3.42;1.30;;;24.70;62.60;;;;;;10566832;27;20075;-33
2023/08/30 06:37:05;;;;;;;2.45;1.50;;;24.60;63.10;;;;;;10575811;27;20039;-37
2023/08/30 06:42:07;;;;;;;;;;;24.70;62.90;;;;;;10560664;28;20520;-32
2023/08/30 06:47:10;;;;;;;1.95;1.20;;;24.70;62.90;;;;;;10571114;27;20355;-31
2023/08/30 06:52:12;;;;;;;2.72;0.98;;;24.70;62.90;;;;;;10561017;27;20051;-39
2023/08/30 06:57:13;;;;;;;;;;;24.70;63.10;;;;;;10571412;27;20484;-34
2023/08/30 07:02:16;;;;;;;12.18;1.10;;;24.60;63.30;;;;;;10554261;27;20014;-38
2023/08/30 07:07:18;;;;;;;1.40;1.00;;;24.50;63.50;;;;;;10571924;27;20444;-32
2023/08/30 07:12:20;;;;;;;1.33;0.95;;;24.60;63.50;;;;;;10572694;28;20057;-31
2023/08/30 07:17:23;;;;;;;;;;;24.60;63.60;;;;;;10573131;28;20071;-36
2023/08/30 07:22:25;;;;;;;1.25;1.00;;;24.40;64.30;;;;;;10567616;28;20007;-33
2023/08/30 07:27:28;;;;;;;;;;;24.50;64.00;;;;;;10569368;28;20504;-39
2023/08/30 07:32:31;;;;;;;2.05;1.02;;;24.60;63.70;;;;;;10576562;28;20014;-35
2023/08/30 07:37:33;;;;;;;0.80;0.50;;;24.50;63.80;;;;;;10580185;28;20071;-32
2023/08/30 07:42:35;;;;;;;0.63;0.50;;;24.60;63.60;;;;;;10566855;28;20122;-34
2023/08/30 07:47:38;;;;;;;;;;;24.70;63.70;;;;;;10569811;28;20067;-36
2023/08/30 07:52:39;;;;;;;0.73;0.68;;;24.70;63.50;;;;;;10566922;28;19966;-35
2023/08/30 07:57:41;;;;;;;0.95;0.68;;;23.90;67.30;;;;;;10564190;28;20147;-42
2023/08/30 08:02:44;;;;;;;3.58;0.95;;;23.30;69.30;;;;;;10578537;27;20043;-32
2023/08/30 08:07:46;;;;;;;2.53;1.00;;;22.40;76.10;;;;;;10585348;27;20170;-32
2023/08/30 08:12:48;;;;;;;1.88;0.70;;;22.80;73.30;;;;;;10574165;27;20094;-39
2023/08/30 08:17:51;;;;;;;1.52;0.80;;;22.00;77.40;;;;;;10572259;27;20472;-33
2023/08/30 08:22:53;;;;;;;6.65;1.38;;;20.40;91.80;;;;;;10571601;28;20079;-35
2023/08/30 08:27:55;;;;;;;2.92;1.00;;;21.80;86.60;;;;;;10574817;27;20516;-36
2023/08/30 08:32:58;;;;;;;2.72;1.40;;;20.00;93.80;;;;;;10571524;28;20264;-34
2023/08/30 08:38:00;;;;;;;2.80;1.48;;;21.20;88.60;;;;;;10576179;27;20134;-35
2023/08/30 08:43:02;;;;;;;2.05;1.10;;;20.90;91.40;;;;;;10580062;27;20054;-32
2023/08/30 08:48:07;;;;;;;8.38;1.40;;;19.90;93.70;;;;;;10575883;27;20145;-34
2023/08/30 08:53:09;;;;;;;6.28;1.48;;;22.20;83.70;;;;;;10577265;27;20047;-37
2023/08/30 08:58:12;;;;;;;8.68;1.70;;;20.80;88.60;;;;;;10578278;27;20596;-33
2023/08/30 09:03:15;;;;;;;9.80;1.98;;;21.00;87.90;;;;;;10579305;27;20119;-35
2023/08/30 09:08:17;;;;;;;4.20;1.52;;;21.20;84.40;;;;;;10570763;27;20163;-39
2023/08/30 09:13:20;;;;;;;3.42;1.52;;;21.60;86.80;;;;;;10571634;27;20142;-37
2023/08/30 09:18:27;;;;;;;7.97;2.17;;;21.30;86.20;;;;;;10560396;27;20050;-39
2023/08/30 09:23:29;;;;;;;6.75;2.53;;;19.90;87.70;;;;;;10570870;28;20078;-38
2023/08/30 09:28:31;;;;;;;4.72;1.67;;;21.50;79.60;;;;;;10574310;28;20126;-34
2023/08/30 09:33:35;;;;;;;5.55;1.60;;;20.70;90.50;;;;;;10574344;28;20043;-33
2023/08/30 09:38:37;;;;;;;11.45;1.70;;;21.00;87.50;;;;;;10574970;27;20090;-36
2023/08/30 09:43:43;;;;;;;15.70;1.75;;;20.50;82.20;;;;;;10573706;28;20101;-34
2023/08/30 09:48:47;;;;;;;13.27;2.15;;;19.30;88.70;;;;;;10576918;27;20472;-34
2023/08/30 09:53:55;;;;;;;11.65;2.33;;;19.90;90.90;;;;;;10581733;27;20051;-36
2023/08/30 09:58:59;;;;;;;10.77;1.75;;;21.10;83.60;;;;;;10571268;28;20043;-34
2023/08/30 10:04:04;;;;;;;12.88;2.17;;;20.50;81.90;;;;;;10573830;28;20047;-37
2023/08/30 10:09:07;;;;;;;11.57;1.88;;;20.10;88.10;;;;;;10574736;27;20040;-33
2023/08/30 10:14:09;;;;;;;7.40;2.55;;;21.20;76.50;;;;;;10576043;27;20384;-32
2023/08/30 10:19:16;;;;;;;3.95;1.42;;;20.20;81.50;;;;;;10554078;28;20048;-32
2023/08/30 10:24:20;;;;;;;5.70;1.45;;;21.20;77.10;;;;;;10570747;27;20054;-35
2023/08/30 10:29:23;;;;;;;12.77;2.08;;;19.80;84.50;;;;;;10562934;27;20079;-33
2023/08/30 10:34:33;;;;;;;20.05;1.98;;;20.30;78.60;;;;;;10574166;27;20043;-35
2023/08/30 10:39:36;;;;;;;6.40;1.58;;;20.80;82.60;;;;;;10570502;27;20531;-37
2023/08/30 10:44:48;;;;;;;8.23;1.60;;;20.90;84.70;;;;;;10580189;27;20134;-30
2023/08/30 10:49:54;;;;;;;20.45;3.42;;;20.20;88.10;;;;;;10572855;27;20404;-30
2023/08/30 10:55:05;;;;;;;13.20;1.85;;;19.60;90.00;;;;;;10564523;28;20225;-36
2023/08/30 11:00:09;;;;;;;13.63;1.88;;;20.40;85.70;;;;;;10570734;27;20074;-37
2023/08/30 11:05:12;;;;;;;11.27;1.50;;;20.50;86.30;;;;;;10571045;28;20092;-38
2023/08/30 11:10:15;;;;;;;10.18;1.65;;;20.60;85.70;;;;;;10571703;28;20050;-32
2023/08/30 11:15:17;;;;;;;9.93;1.90;;;20.50;86.40;;;;;;10571239;28;20079;-38
2023/08/30 11:20:20;;;;;;;5.78;1.42;;;20.30;87.50;;;;;;10578581;28;20100;-32
2023/08/30 11:25:22;;;;;;;10.50;2.15;;;20.90;75.60;;;;;;10568074;28;20458;-32
2023/08/30 11:30:24;;;;;;;7.07;1.27;;;20.30;83.30;;;;;;10552804;28;20473;-37
2023/08/30 11:35:27;;;;;;;10.98;1.65;;;20.00;90.00;;;;;;10577255;28;20039;-32
2023/08/30 11:40:29;;;;;;;9.88;1.33;;;20.50;79.50;;;;;;10580342;27;20067;-32
2023/08/30 11:45:33;;;;;;;12.02;1.75;;;20.30;87.10;;;;;;10578206;27;20055;-32
2023/08/30 11:50:36;;;;;;;7.18;1.70;;;20.20;85.50;;;;;;10567409;28;20550;-32
2023/08/30 11:55:39;;;;;;;5.18;1.20;;;20.30;81.20;;;;;;10560239;28;20470;-34
2023/08/30 12:00:41;;;;;;;7.22;1.77;;;19.40;91.70;;;;;;10580623;27;20035;-30
2023/08/30 12:05:47;;;;;;;2.55;0.93;;;19.50;88.70;;;;;;10554926;27;20059;-36
2023/08/30 12:10:49;;;;;;;5.00;1.27;;;21.00;85.00;;;;;;10581312;27;20066;-38
2023/08/30 12:15:51;;;;;;;13.15;1.75;;;21.30;77.20;;;;;;10577150;28;20093;-38
2023/08/30 12:20:55;;;;;;;5.63;1.25;;;20.80;80.40;;;;;;10584901;27;20456;-34
2023/08/30 12:26:05;;;;;;;10.93;1.80;;;20.10;83.70;;;;;;10572832;28;20457;-32
2023/08/30 12:31:07;;;;;;;6.43;0.93;;;20.50;81.90;;;;;;10570165;28;20606;-32
2023/08/30 12:36:10;;;;;;;3.22;1.20;;;21.40;80.60;;;;;;10568208;28;20056;-39
2023/08/30 12:41:12;;;;;;;13.05;2.53;;;21.10;79.60;;;;;;10580464;27;20496;-42
2023/08/30 12:46:14;;;;;;;5.40;1.25;;;20.80;76.20;;;;;;10566855;28;20044;-35
2023/08/30 12:51:17;;;;;;;6.18;1.15;;;21.10;77.90;;;;;;10574349;28;20134;-38
2023/08/30 12:56:19;;;;;;;5.95;1.13;;;22.10;75.20;;;;;;10572668;27;20496;-35
2023/08/30 13:01:20;;;;;;;4.75;1.10;;;20.70;81.70;;;;;;10575510;27;20035;-38
2023/08/30 13:06:23;;;;;;;7.88;1.52;;;20.70;78.90;;;;;;10583008;27;20139;-36
2023/08/30 13:11:26;;;;;;;5.75;1.10;;;20.50;82.50;;;;;;10573997;27;20101;-39
2023/08/30 13:16:28;;;;;;;6.97;1.30;;;22.00;77.20;;;;;;10575227;27;20143;-37
2023/08/30 13:21:31;;;;;;;3.75;1.10;;;21.30;76.00;;;;;;10573953;27;20083;-40
2023/08/30 13:26:33;;;;;;;6.15;2.05;;;21.50;76.00;;;;;;10576688;27;20070;-34
2023/08/30 13:31:34;;;;;;;3.58;1.20;;;21.30;74.50;;;;;;10584431;27;20043;-32
2023/08/30 13:36:39;;;;;;;3.63;0.93;;;21.30;77.10;;;;;;10574747;27;20507;-35
2023/08/30 13:41:40;;;;;;;5.03;0.88;;;21.50;70.00;;;;;;10571946;27;20076;-38
2023/08/30 13:46:43;;;;;;;4.05;0.88;;;21.00;71.50;;;;;;10572555;27;20452;-34
2023/08/30 13:51:47;;;;;;;5.88;0.82;;;22.10;73.30;;;;;;10574140;27;20063;-36
2023/08/30 13:56:48;;;;;;;4.20;1.42;;;22.60;69.50;;;;;;10576834;27;20047;-37
2023/08/30 14:01:50;;;;;;;4.97;1.05;;;21.50;70.40;;;;;;10566872;27;20047;-34
2023/08/30 14:06:53;;;;;;;11.15;1.40;;;21.00;82.00;;;;;;10581101;27;20075;-37
2023/08/30 14:11:55;;;;;;;3.20;0.60;;;21.10;69.90;;;;;;10560388;28;20456;-40
2023/08/30 14:16:57;;;;;;;9.25;1.23;;;22.80;68.40;;;;;;10562104;28;20165;-32
2023/08/30 14:22:02;;;;;;;3.60;0.93;;;22.70;64.90;;;;;;10557493;27;20079;-34
2023/08/30 14:27:04;;;;;;;4.32;0.93;;;23.10;69.80;;;;;;10562714;27;20130;-33
2023/08/30 14:32:06;;;;;;;;;;;21.90;65.70;;;;;;10573156;28;20146;-34
2023/08/30 14:37:09;;;;;;;8.15;1.45;;;21.40;71.50;;;;;;10566049;27;19919;-34
2023/08/30 14:42:11;;;;;;;2.50;0.80;;;21.70;72.50;;;;;;10551051;28;20044;-33
2023/08/30 14:47:14;;;;;;;3.88;0.80;;;23.30;67.40;;;;;;10558834;28;20066;-35
2023/08/30 14:52:17;;;;;;;9.35;1.33;;;23.00;69.30;;;;;;10569622;28;20051;-38
2023/08/30 14:57:19;;;;;;;4.82;0.98;;;22.40;71.50;;;;;;10566568;27;20513;-32
2023/08/30 15:02:21;;;;;;;3.78;0.80;;;22.20;64.40;;;;;;10572203;27;20437;-35
2023/08/30 15:07:24;;;;;;;2.15;0.77;;;23.70;66.50;;;;;;10570398;27;20044;-33
2023/08/30 15:12:26;;;;;;;6.90;0.85;;;23.80;64.70;;;;;;10566264;28;20100;-36
2023/08/30 15:17:28;;;;;;;1.92;0.90;;;23.40;66.30;;;;;;10563621;28;20075;-39
2023/08/30 15:22:32;;;;;;;5.60;1.17;;;23.60;66.10;;;;;;10568185;28;20521;-33
2023/08/30 15:27:34;;;;;;;4.97;1.00;;;24.30;63.70;;;;;;10557844;28;20044;-33
2023/08/30 15:32:36;;;;;;;8.35;1.02;;;24.70;62.00;;;;;;10556632;28;20054;-39
2023/08/30 15:37:39;;;;;;;3.88;0.80;;;24.00;58.70;;;;;;10554691;28;20158;-32
2023/08/30 15:42:41;;;;;;;4.47;0.80;;;22.60;64.50;;;;;;10567389;28;20063;-31
2023/08/30 15:47:43;;;;;;;2.00;0.60;;;22.90;61.90;;;;;;10561843;28;20039;-36
2023/08/30 15:52:46;;;;;;;;;;;24.00;63.80;;;;;;10557472;28;20055;-33
2023/08/30 15:57:48;;;;;;;4.85;1.02;;;23.50;63.70;;;;;;10555595;28;20030;-37
2023/08/30 16:02:52;;;;;;;6.22;1.48;;;23.30;65.20;;;;;;10561738;28;20062;-36
2023/08/30 16:07:55;;;;;;;23.58;3.17;;;24.50;57.40;;;;;;10562725;28;20096;-30
2023/08/30 16:12:57;;;;;;;16.95;4.35;;;23.90;61.00;;;;;;10575744;28;20070;-37
2023/08/30 16:17:58;;;;;;;;;;;24.20;62.40;;;;;;10569138;28;20043;-39
2023/08/30 16:23:01;;;;;;;6.47;2.20;;;23.50;61.10;;;;;;10565497;27;20014;-32
2023/08/30 16:28:04;;;;;;;15.00;3.53;;;23.60;58.10;;;;;;10571440;27;20048;-31
2023/08/30 16:33:06;;;;;;;13.20;2.50;;;24.10;63.10;;;;;;10576647;27;20584;-35
2023/08/30 16:38:10;;;;;;;;;;;24.10;61.40;;;;;;10580356;27;20087;-33
2023/08/30 16:43:11;;;;;;;9.55;2.47;;;24.80;61.20;;;;;;10570380;27;20448;-40
2023/08/30 16:48:13;;;;;;;7.10;1.88;;;24.70;61.60;;;;;;10576133;27;20063;-32
2023/08/30 16:53:16;;;;;;;;;;;24.60;61.70;;;;;;10573126;28;20534;-33
2023/08/30 16:58:18;;;;;;;9.32;2.45;;;23.70;63.70;;;;;;10569256;28;20034;-33
2023/08/30 17:03:20;;;;;;;7.53;1.73;;;24.50;62.00;;;;;;10568574;27;20603;-39
2023/08/30 17:08:23;;;;;;;4.15;1.42;;;24.70;61.90;;;;;;10579034;27;20043;-29
2023/08/30 17:13:25;;;;;;;4.78;0.93;;;24.00;57.70;;;;;;10567490;27;20071;-38
2023/08/30 17:18:27;;;;;;;;;;;24.30;62.00;;;;;;10573117;27;20373;-36
2023/08/30 17:23:31;;;;;;;2.33;1.00;;;24.10;62.10;;;;;;10574201;28;19945;-35
2023/08/30 17:28:34;;;;;;;3.00;0.80;;;24.00;63.50;;;;;;10575526;28;20078;-32
2023/08/30 17:33:37;;;;;;;5.00;1.00;;;23.00;63.40;;;;;;10574488;28;20063;-35
2023/08/30 17:38:41;;;;;;;8.63;1.45;;;24.40;61.70;;;;;;10572814;28;20071;-33
2023/08/30 17:43:42;;;;;;;0.93;0.73;;;22.00;67.90;;;;;;10554828;27;20105;-32
2023/08/30 17:48:44;;;;;;;3.60;0.80;;;23.30;67.50;;;;;;10581941;27;20070;-36
2023/08/30 17:53:48;;;;;;;2.45;0.50;;;22.90;67.10;;;;;;10565810;28;20134;-35
2023/08/30 17:58:50;;;;;;;2.50;0.85;;;23.30;66.20;;;;;;10567484;27;20085;-34
2023/08/30 18:03:52;;;;;;;2.20;0.65;;;23.00;67.60;;;;;;10569354;27;20078;-33
2023/08/30 18:08:56;;;;;;;6.63;0.98;;;24.20;63.80;;;;;;10567706;27;20046;-32
2023/08/30 18:13:57;;;;;;;6.78;1.13;;;23.60;64.30;;;;;;10542476;28;20473;-35
2023/08/30 18:19:00;;;;;;;;;;;23.30;65.60;;;;;;10553926;27;20079;-35
2023/08/30 18:24:19;;;;;;;;;;;24.10;64.60;;;;;;10546356;28;19930;-37
2023/08/30 18:29:23;;;;;;;1.58;0.70;;;25.10;61.30;;;;;;10566377;27;19967;-37
2023/08/30 18:34:26;;;;;;;4.90;0.50;;;25.40;60.50;;;;;;10569067;28;20105;-37
2023/08/30 18:39:31;;;;;;;2.10;0.47;;;25.40;60.40;;;;;;10575288;27;20714;-35
2023/08/30 18:44:33;;;;;;;2.63;0.70;;;25.40;60.10;;;;;;10569948;27;20036;-35
2023/08/30 18:49:35;;;;;;;2.33;0.85;;;25.50;60.10;;;;;;10567754;27;20384;-30
2023/08/30 18:54:43;;;;;;;2.58;0.75;;;25.50;60.00;;;;;;10559909;28;20127;-35
2023/08/30 18:59:45;;;;;;;3.72;0.63;;;25.50;60.00;;;;;;10568216;28;20514;-34
2023/08/30 19:04:47;;;;;;;;;;;25.40;60.00;;;;;;10567587;28;20135;-39
2023/08/30 19:09:50;;;;;;;2.92;0.70;;;25.50;60.10;;;;;;10571034;28;20441;-31
2023/08/30 19:14:52;;;;;;;2.88;1.00;;;25.40;60.10;;;;;;10562834;28;20151;-34
2023/08/30 19:19:54;;;;;;;3.05;0.70;;;25.40;60.00;;;;;;10568230;28;20094;-37
2023/08/30 19:24:58;;;;;;;3.58;0.60;;;25.30;60.10;;;;;;10575221;28;20132;-39
2023/08/30 19:29:59;;;;;;;2.65;0.70;;;25.40;60.00;;;;;;10567290;28;20042;-36
2023/08/30 19:35:01;;;;;;;1.92;0.40;;;25.40;60.10;;;;;;10570236;28;20209;-32
2023/08/30 19:40:08;;;;;;;3.13;0.70;;;25.30;60.00;;;;;;10568336;28;20036;-34
2023/08/30 19:45:11;;;;;;;4.78;0.82;;;25.30;60.00;;;;;;10568477;28;20128;-29
2023/08/30 19:50:14;;;;;;;3.78;1.13;;;25.30;60.00;;;;;;10567478;28;20134;-36
2023/08/30 19:55:17;;;;;;;2.20;0.63;;;25.30;60.00;;;;;;10570517;28;20048;-35
2023/08/30 20:00:19;;;;;;;6.10;1.08;;;25.30;60.00;;;;;;10561721;27;20065;-31
2023/08/30 20:05:21;;;;;;;;;;;25.30;60.00;;;;;;10569930;27;20122;-36
2023/08/30 20:10:24;;;;;;;3.95;0.70;;;25.20;60.00;;;;;;10572422;27;19924;-35
2023/08/30 20:15:27;;;;;;;4.68;0.93;;;25.20;60.50;;;;;;10563397;27;20151;-35
2023/08/30 20:20:33;;;;;;;5.18;0.85;;;25.20;59.90;;;;;;10570862;27;20044;-36
2023/08/30 20:25:37;;;;;;;8.98;1.10;;;25.20;59.80;;;;;;10571164;27;20040;-36
2023/08/30 20:30:46;;;;;;;3.83;0.80;;;25.20;59.90;;;;;;10566760;27;20047;-40
2023/08/30 20:35:47;;;;;;;4.72;0.98;;;25.20;59.90;;;;;;10568659;28;20100;-38
2023/08/30 20:40:51;;;;;;;6.60;0.85;;;25.10;59.90;;;;;;10571764;28;20109;-36
2023/08/30 20:45:55;;;;;;;5.93;1.27;;;25.00;60.00;;;;;;10568603;28;20972;-35
2023/08/30 20:50:57;;;;;;;8.65;1.48;;;25.10;60.00;;;;;;10558883;27;20127;-35
2023/08/30 20:56:01;;;;;;;5.85;0.95;;;25.10;59.90;;;;;;10569499;27;20051;-39
2023/08/30 21:01:03;;;;;;;1.90;0.70;;;25.00;60.00;;;;;;10567823;28;20158;-35
2023/08/30 21:06:06;;;;;;;8.98;1.50;;;25.00;60.00;;;;;;10567884;27;20047;-34
2023/08/30 21:11:09;;;;;;;15.07;1.83;;;25.00;59.80;;;;;;10559860;28;20043;-34
2023/08/30 21:16:11;;;;;;;5.88;1.10;;;25.00;60.00;;;;;;10571833;27;20146;-34
2023/08/30 21:21:13;;;;;;;;;;;25.00;60.10;;;;;;10568529;27;20112;-34
2023/08/30 21:26:16;;;;;;;5.32;1.20;;;25.00;60.10;;;;;;10563094;27;19967;-33
2023/08/30 21:31:18;;;;;;;11.23;2.00;;;25.00;60.10;;;;;;10572334;27;20134;-36
2023/08/30 21:36:20;;;;;;;7.88;1.17;;;24.50;61.10;;;;;;10573837;27;20105;-35
2023/08/30 21:41:23;;;;;;;5.03;1.33;;;24.60;60.60;;;;;;10559559;28;20104;-33
2023/08/30 21:46:25;;;;;;;9.77;1.67;;;24.70;60.50;;;;;;10548601;27;20696;-34
2023/08/30 21:51:30;;;;;;;;;;;24.70;59.40;;;;;;10555005;28;20071;-39
2023/08/30 21:56:34;;;;;;;11.90;1.38;;;24.60;60.70;;;;;;10554101;27;19927;-37
2023/08/30 22:01:36;;;;;;;5.65;1.20;;;24.70;59.90;;;;;;10553747;28;20048;-35
2023/08/30 22:06:38;;;;;;;;;;;24.70;60.10;;;;;;10569651;27;20092;-35
2023/08/30 22:11:41;;;;;;;8.70;1.27;;;24.70;60.30;;;;;;10541302;28;19974;-30
2023/08/30 22:16:43;;;;;;;2.88;0.88;;;24.60;60.30;;;;;;10545289;27;20520;-35
2023/08/30 22:21:46;;;;;;;5.60;0.77;;;24.70;60.10;;;;;;10552628;28;20455;-41
2023/08/30 22:26:49;;;;;;;5.18;1.42;;;24.70;60.20;;;;;;10552475;28;20539;-36
2023/08/30 22:31:52;;;;;;;2.75;0.90;;;24.60;60.10;;;;;;10560780;27;20579;-35
2023/08/30 22:36:55;;;;;;;2.20;0.65;;;24.50;60.50;;;;;;10556215;28;20054;-37
2023/08/30 22:41:58;;;;;;;6.22;0.90;;;23.60;58.90;;;;;;10555217;28;20295;-38
2023/08/30 22:47:00;;;;;;;4.78;1.00;;;24.20;60.90;;;;;;10555038;28;20143;-34
2023/08/30 22:52:03;;;;;;;5.07;0.75;;;24.20;60.90;;;;;;10564654;28;20404;-38
2023/08/30 22:57:18;;;;;;;5.03;0.80;;;24.30;60.70;;;;;;10558308;28;20044;-33
2023/08/30 23:02:20;;;;;;;2.15;0.50;;;24.10;60.80;;;;;;10556176;28;20127;-37
2023/08/30 23:07:21;;;;;;;;;;;24.40;60.30;;;;;;10531147;28;20040;-38
2023/08/30 23:12:25;;;;;;;1.05;0.52;;;24.40;60.30;;;;;;10549135;28;19928;-34
2023/08/30 23:17:26;;;;;;;4.47;0.73;;;24.00;60.70;;;;;;10541203;28;20142;-36
2023/08/30 23:22:29;;;;;;;3.15;0.60;;;23.70;61.60;;;;;;10542970;28;20064;-38
2023/08/30 23:27:32;;;;;;;6.28;0.85;;;22.50;60.50;;;;;;10550658;28;20071;-33
2023/08/30 23:32:34;;;;;;;3.92;0.82;;;23.40;63.40;;;;;;10561125;27;20075;-37
2023/08/30 23:37:36;;;;;;;1.50;0.47;;;23.50;62.60;;;;;;10542278;28;20075;-39
2023/08/30 23:42:39;;;;;;;1.55;0.57;;;24.10;61.00;;;;;;10550314;27;20096;-30
2023/08/30 23:47:41;;;;;;;2.20;0.50;;;23.50;62.20;;;;;;10551167;27;20122;-34
2023/08/30 23:52:44;;;;;;;3.55;0.75;;;20.60;68.60;;;;;;10548739;28;20063;-32
2023/08/30 23:57:48;;;;;;;3.78;0.70;;;20.90;74.20;;;;;;10551785;28;20142;-39
